createdAt,value
2018-07-05T00:00:29.637Z,1.87
2018-07-05T00:03:09.236Z,2.50
2018-07-05T00:05:48.872Z,2.30
2018-07-05T00:08:28.502Z,2.50
2018-07-05T00:11:08.254Z,2.08
2018-07-05T00:13:47.898Z,2.30
2018-07-05T00:16:27.606Z,2.58
2018-07-05T00:19:07.387Z,2.30
2018-07-05T00:21:47.123Z,2.10
2018-07-05T00:24:26.765Z,2.10
2018-07-05T00:27:06.288Z,2.80
2018-07-05T00:29:45.858Z,2.17
2018-07-05T00:32:25.527Z,1.98
2018-07-05T00:35:05.219Z,2.33
2018-07-05T00:37:44.786Z,2.17
2018-07-05T00:40:24.384Z,2.47
2018-07-05T00:43:03.990Z,2.35
2018-07-05T00:45:43.861Z,2.50
2018-07-05T00:48:23.522Z,2.58
2018-07-05T00:51:04.135Z,2.05
2018-07-05T00:53:43.955Z,2.80
2018-07-05T00:56:23.755Z,2.30
2018-07-05T00:59:03.505Z,2.40
2018-07-05T01:01:43.247Z,2.25
2018-07-05T01:04:22.979Z,2.40
2018-07-05T01:07:02.698Z,2.35
2018-07-05T01:09:42.320Z,2.00
2018-07-05T01:12:21.998Z,1.85
2018-07-05T01:15:01.873Z,2.25
2018-07-05T01:17:41.819Z,2.30
2018-07-05T01:20:21.625Z,2.22
2018-07-05T01:23:01.129Z,2.02
2018-07-05T01:25:40.837Z,1.82
2018-07-05T01:28:20.581Z,2.30
2018-07-05T01:31:00.237Z,2.27
2018-07-05T01:33:40.000Z,2.40
2018-07-05T01:36:19.774Z,2.75
2018-07-05T01:38:59.426Z,2.27
2018-07-05T01:41:39.232Z,2.00
2018-07-05T01:44:18.792Z,2.60
2018-07-05T01:46:58.365Z,2.27
2018-07-05T01:49:37.985Z,2.17
2018-07-05T01:52:17.514Z,2.75
2018-07-05T01:54:57.239Z,2.20
2018-07-05T01:57:36.746Z,2.80
2018-07-05T02:00:16.986Z,2.25
2018-07-05T02:02:56.727Z,2.50
2018-07-05T02:05:36.487Z,2.35
2018-07-05T02:08:16.321Z,2.42
2018-07-05T02:10:55.948Z,2.72
2018-07-05T02:13:35.469Z,2.62
2018-07-05T02:16:15.414Z,2.25
2018-07-05T02:18:55.060Z,2.15
2018-07-05T02:21:35.333Z,3.25
2018-07-05T02:24:15.318Z,2.60
2018-07-05T02:26:55.050Z,2.80
2018-07-05T02:29:34.776Z,3.10
2018-07-05T02:32:14.378Z,3.87
2018-07-05T02:34:54.006Z,3.20
2018-07-05T02:37:38.886Z,3.85
2018-07-05T02:40:18.600Z,3.35
2018-07-05T02:42:58.284Z,3.12
2018-07-05T02:45:38.140Z,3.08
2018-07-05T02:48:17.683Z,3.45
2018-07-05T02:50:57.452Z,3.47
2018-07-05T02:53:37.164Z,3.75
2018-07-05T02:56:16.810Z,3.62
2018-07-05T02:58:56.578Z,3.67
2018-07-05T03:01:36.165Z,4.25
2018-07-05T03:04:16.063Z,3.80
2018-07-05T03:06:55.682Z,3.15
2018-07-05T03:09:35.405Z,3.75
2018-07-05T03:12:15.039Z,4.10
2018-07-05T03:14:54.796Z,3.35
2018-07-05T03:17:34.416Z,3.27
2018-07-05T03:20:14.087Z,3.87
2018-07-05T03:22:53.741Z,4.67
2018-07-05T03:25:33.386Z,4.45
2018-07-05T03:28:13.000Z,4.37
2018-07-05T03:30:52.616Z,4.08
2018-07-05T03:33:32.362Z,4.00
2018-07-05T03:36:12.044Z,5.55
2018-07-05T03:38:51.746Z,5.95
2018-07-05T03:41:31.939Z,5.28
2018-07-05T03:44:12.522Z,3.98
2018-07-05T03:46:52.145Z,3.55
2018-07-05T03:49:31.833Z,4.40
2018-07-05T03:52:11.638Z,4.40
2018-07-05T03:54:51.393Z,4.45
2018-07-05T03:57:31.105Z,4.50
2018-07-05T04:00:10.755Z,4.65
2018-07-05T04:02:50.475Z,4.50
2018-07-05T04:05:30.121Z,4.95
2018-07-05T04:08:09.608Z,4.92
2018-07-05T04:10:49.345Z,4.62
2018-07-05T04:13:29.046Z,4.08
2018-07-05T04:16:08.714Z,5.35
2018-07-05T04:18:48.552Z,4.70
2018-07-05T04:21:28.204Z,3.65
2018-07-05T04:24:07.903Z,4.25
2018-07-05T04:26:48.510Z,4.62
2018-07-05T04:29:28.157Z,4.53
2018-07-05T04:32:07.947Z,3.22
2018-07-05T04:34:47.702Z,3.80
2018-07-05T04:37:27.445Z,4.00
2018-07-05T04:40:07.209Z,4.78
2018-07-05T04:42:46.997Z,4.10
2018-07-05T04:45:27.582Z,3.27
2018-07-05T04:48:07.303Z,3.37
2018-07-05T04:50:47.080Z,4.45
2018-07-05T04:53:26.908Z,3.42
2018-07-05T04:56:06.908Z,4.55
2018-07-05T04:58:46.736Z,4.22
2018-07-05T05:01:27.437Z,4.40
2018-07-05T05:04:07.049Z,4.08
2018-07-05T05:06:46.757Z,3.92
2018-07-05T05:09:26.414Z,5.10
2018-07-05T05:12:06.001Z,4.50
2018-07-05T05:14:45.523Z,4.10
2018-07-05T05:17:25.249Z,4.28
2018-07-05T05:20:05.028Z,4.40
2018-07-05T05:22:44.904Z,4.03
2018-07-05T05:25:24.592Z,4.75
2018-07-05T05:28:04.214Z,4.83
2018-07-05T05:30:43.764Z,4.60
2018-07-05T05:33:23.437Z,4.10
2018-07-05T05:36:02.990Z,4.45
2018-07-05T05:38:42.541Z,4.28
2018-07-05T05:41:22.222Z,4.17
2018-07-05T05:44:01.819Z,4.05
2018-07-05T05:46:41.453Z,4.47
2018-07-05T05:49:21.323Z,3.70
2018-07-05T05:52:00.908Z,3.25
2018-07-05T05:54:40.597Z,4.45
2018-07-05T05:57:20.477Z,4.70
2018-07-05T06:00:00.169Z,3.77
2018-07-05T06:02:39.914Z,5.62
2018-07-05T06:05:19.881Z,4.40
2018-07-05T06:07:59.746Z,4.53
2018-07-05T06:10:39.612Z,4.47
2018-07-05T06:13:19.376Z,4.72
2018-07-05T06:15:59.095Z,5.30
2018-07-05T06:18:39.032Z,4.00
2018-07-05T06:21:18.688Z,3.47
2018-07-05T06:23:58.567Z,4.58
2018-07-05T06:26:38.373Z,3.90
2018-07-05T06:29:18.075Z,4.03
2018-07-05T06:31:57.824Z,4.15
2018-07-05T06:34:37.519Z,3.85
2018-07-05T06:37:17.226Z,3.60
2018-07-05T06:39:56.904Z,3.70
2018-07-05T06:42:36.661Z,3.52
2018-07-05T06:45:16.601Z,3.00
2018-07-05T06:47:56.340Z,2.37
2018-07-05T06:50:36.012Z,2.50
2018-07-05T06:53:15.670Z,2.10
2018-07-05T06:55:55.272Z,3.12
2018-07-05T06:58:34.901Z,2.10
2018-07-05T07:01:15.968Z,2.40
2018-07-05T07:03:55.811Z,2.35
2018-07-05T07:06:35.462Z,2.22
2018-07-05T07:14:15.032Z,2.22
2018-07-05T07:16:54.866Z,2.08
2018-07-05T07:19:34.533Z,1.98
2018-07-05T07:22:14.210Z,2.12
2018-07-05T07:24:53.933Z,2.12
2018-07-05T07:27:33.659Z,2.25
2018-07-05T07:30:13.308Z,1.92
2018-07-05T07:32:53.144Z,1.87
2018-07-05T07:35:33.043Z,2.30
2018-07-05T07:38:12.723Z,2.05
2018-07-05T07:40:52.419Z,1.80
2018-07-05T07:43:19.769Z,1.45
2018-07-05T07:45:47.181Z,1.75
2018-07-05T07:48:14.490Z,1.45
2018-07-05T07:50:41.822Z,1.82
2018-07-05T07:53:09.162Z,1.87
2018-07-05T07:55:36.481Z,7.12
2018-07-05T07:58:03.813Z,3.42
2018-07-05T08:00:31.258Z,2.10
2018-07-05T08:02:58.641Z,1.40
2018-07-05T08:05:26.006Z,1.37
2018-07-05T08:07:53.362Z,1.30
2018-07-05T08:10:20.705Z,1.70
2018-07-05T08:12:48.220Z,1.90
2018-07-05T08:15:15.561Z,1.62
2018-07-05T08:17:42.914Z,2.02
2018-07-05T08:20:10.245Z,1.82
2018-07-05T08:22:37.601Z,1.90
2018-07-05T08:25:04.932Z,1.67
2018-07-05T08:27:32.356Z,1.65
2018-07-05T08:29:59.709Z,1.72
2018-07-05T08:32:27.051Z,1.90
2018-07-05T08:34:54.399Z,2.30
2018-07-05T08:37:21.769Z,2.27
2018-07-05T08:39:49.161Z,1.87
2018-07-05T08:42:16.563Z,1.95
2018-07-05T08:44:43.989Z,1.90
2018-07-05T08:47:11.384Z,1.90
2018-07-05T08:49:38.728Z,1.80
2018-07-05T08:52:06.055Z,1.00
2018-07-05T08:54:33.667Z,1.92
2018-07-05T08:57:01.062Z,1.60
2018-07-05T08:59:28.800Z,1.75
2018-07-05T09:01:56.240Z,1.70
2018-07-05T09:04:24.270Z,2.40
2018-07-05T09:06:51.888Z,1.92
2018-07-05T09:09:19.322Z,1.27
2018-07-05T09:11:46.659Z,1.72
2018-07-05T09:14:14.045Z,1.55
2018-07-05T09:16:41.407Z,3.35
2018-07-05T09:19:08.758Z,1.47
2018-07-05T09:21:36.093Z,1.70
2018-07-05T09:24:03.442Z,1.37
2018-07-05T09:26:30.769Z,1.62
2018-07-05T09:28:58.150Z,1.98
2018-07-05T09:31:25.492Z,1.72
2018-07-05T09:33:52.896Z,1.10
2018-07-05T09:36:20.243Z,1.72
2018-07-05T09:38:47.763Z,1.87
2018-07-05T09:41:15.116Z,1.42
2018-07-05T09:43:42.438Z,1.55
2018-07-05T09:46:10.073Z,1.70
2018-07-05T09:48:37.401Z,1.82
2018-07-05T09:51:04.965Z,1.80
2018-07-05T09:53:32.422Z,2.22
2018-07-05T09:55:59.836Z,1.55
2018-07-05T09:58:27.189Z,1.95
2018-07-05T10:00:54.543Z,1.77
2018-07-05T10:03:22.655Z,1.87
2018-07-05T10:05:50.109Z,1.90
2018-07-05T10:08:18.360Z,2.00
2018-07-05T10:10:45.699Z,1.75
2018-07-05T10:13:13.482Z,2.85
2018-07-05T10:15:40.877Z,1.67
2018-07-05T10:18:08.182Z,2.40
2018-07-05T10:20:35.532Z,1.80
2018-07-05T10:23:03.125Z,1.45
2018-07-05T10:25:30.472Z,1.75
2018-07-05T10:27:57.791Z,1.75
2018-07-05T10:30:37.611Z,2.12
2018-07-05T10:33:17.451Z,2.40
2018-07-05T10:35:44.787Z,1.95
2018-07-05T10:38:12.120Z,1.80
2018-07-05T10:40:52.105Z,1.60
2018-07-05T10:43:31.816Z,1.90
2018-07-05T10:46:11.592Z,1.62
2018-07-05T10:48:51.356Z,1.95
2018-07-05T10:51:31.152Z,1.47
2018-07-05T10:54:10.865Z,2.17
2018-07-05T10:56:50.527Z,1.67
2018-07-05T10:59:30.313Z,1.67
2018-07-05T11:02:09.837Z,1.90
2018-07-05T11:04:49.660Z,1.90
2018-07-05T11:07:29.429Z,2.60
2018-07-05T11:10:09.105Z,1.77
2018-07-05T11:12:48.757Z,1.60
2018-07-05T11:15:28.493Z,1.80
2018-07-05T11:18:08.225Z,1.98
2018-07-05T11:20:48.088Z,1.80
2018-07-05T11:23:27.868Z,1.90
2018-07-05T11:26:07.651Z,2.02
2018-07-05T11:28:47.290Z,1.85
2018-07-05T11:31:27.024Z,1.87
2018-07-05T11:34:06.615Z,1.90
2018-07-05T11:36:46.308Z,1.87
2018-07-05T11:39:26.025Z,2.83
2018-07-05T11:41:59.715Z,1.67
2018-07-05T11:44:39.461Z,1.90
2018-07-05T11:47:19.249Z,2.08
2018-07-05T11:49:59.072Z,2.10
2018-07-05T11:52:38.872Z,2.00
2018-07-05T11:55:18.586Z,2.08
2018-07-05T11:57:58.330Z,2.12
2018-07-05T12:00:38.215Z,2.10
2018-07-05T12:03:17.864Z,1.60
2018-07-05T12:05:57.585Z,1.72
2018-07-05T12:08:37.336Z,2.08
2018-07-05T12:11:17.014Z,2.20
2018-07-05T12:13:56.705Z,3.00
2018-07-05T12:16:36.344Z,2.00
2018-07-05T12:19:16.088Z,2.10
2018-07-05T12:21:56.036Z,1.82
2018-07-05T12:24:35.753Z,1.98
2018-07-05T12:27:15.477Z,1.85
2018-07-05T12:29:55.553Z,1.90
2018-07-05T12:32:35.207Z,1.98
2018-07-05T12:35:14.837Z,1.90
2018-07-05T12:37:54.607Z,2.02
2018-07-05T12:40:34.230Z,2.15
2018-07-05T12:43:13.996Z,2.67
2018-07-05T12:45:53.789Z,2.08
2018-07-05T12:48:33.588Z,1.70
2018-07-05T12:51:13.537Z,2.08
2018-07-05T12:53:53.252Z,2.87
2018-07-05T12:56:32.982Z,3.15
2018-07-05T12:59:12.797Z,2.00
2018-07-05T13:01:52.456Z,2.33
2018-07-05T13:04:32.165Z,2.10
2018-07-05T13:07:11.885Z,2.30
2018-07-05T13:09:51.553Z,2.22
2018-07-05T13:12:31.277Z,2.25
2018-07-05T13:15:11.025Z,2.45
2018-07-05T13:17:50.885Z,2.10
2018-07-05T13:20:30.721Z,2.60
2018-07-05T13:23:10.295Z,2.17
2018-07-05T13:25:49.955Z,2.02
2018-07-05T13:28:29.637Z,2.10
2018-07-05T13:31:09.388Z,2.83
2018-07-05T13:33:48.940Z,2.60
2018-07-05T13:36:28.792Z,2.42
2018-07-05T13:39:08.711Z,1.80
2018-07-05T13:41:48.385Z,2.37
2018-07-05T13:44:27.992Z,2.55
2018-07-05T13:47:07.718Z,2.20
2018-07-05T13:49:47.300Z,2.35
2018-07-05T13:52:27.114Z,1.85
2018-07-05T13:55:06.787Z,2.02
2018-07-05T13:57:46.394Z,2.12
2018-07-05T14:00:26.077Z,2.25
2018-07-05T14:03:05.939Z,2.20
2018-07-05T14:05:45.624Z,2.00
2018-07-05T14:08:25.317Z,2.22
2018-07-05T14:11:05.125Z,1.95
2018-07-05T14:13:44.912Z,1.82
2018-07-05T14:16:24.740Z,1.90
2018-07-05T14:19:04.372Z,2.42
2018-07-05T14:21:44.109Z,2.27
2018-07-05T14:24:23.882Z,1.92
2018-07-05T14:27:03.710Z,1.80
2018-07-05T14:29:43.384Z,2.10
2018-07-05T14:32:23.102Z,2.65
2018-07-05T14:35:03.080Z,1.75
2018-07-05T14:37:43.028Z,1.87
2018-07-05T14:40:22.773Z,1.98
2018-07-05T14:43:02.649Z,2.22
2018-07-05T14:45:42.342Z,2.50
2018-07-05T14:48:22.138Z,2.25
2018-07-05T14:51:01.868Z,1.80
2018-07-05T14:53:41.557Z,2.10
2018-07-05T14:56:21.232Z,2.08
2018-07-05T14:59:00.936Z,1.90
2018-07-05T15:01:40.614Z,1.95
2018-07-05T15:04:20.392Z,1.80
2018-07-05T15:07:00.047Z,2.25
2018-07-05T15:09:39.685Z,2.00
2018-07-05T15:12:19.470Z,2.20
2018-07-05T15:14:59.095Z,2.22
2018-07-05T15:17:39.077Z,2.20
2018-07-05T15:20:18.713Z,2.02
2018-07-05T15:22:58.369Z,2.45
2018-07-05T15:25:38.109Z,2.20
2018-07-05T15:28:17.692Z,2.40
2018-07-05T15:30:57.375Z,2.15
2018-07-05T15:33:37.085Z,2.77
2018-07-05T15:36:16.732Z,2.60
2018-07-05T15:38:56.525Z,2.17
2018-07-05T15:41:36.162Z,2.50
2018-07-05T15:44:15.823Z,3.52
2018-07-05T15:46:55.496Z,2.10
2018-07-05T15:49:35.313Z,3.35
2018-07-05T15:52:15.269Z,3.15
2018-07-05T15:54:55.521Z,2.02
2018-07-05T15:57:35.353Z,1.65
2018-07-05T16:00:15.197Z,2.02
2018-07-05T16:02:54.930Z,1.98
2018-07-05T16:05:34.704Z,1.40
2018-07-05T16:08:14.389Z,1.77
2018-07-05T16:10:54.099Z,1.82
2018-07-05T16:13:33.798Z,1.60
2018-07-05T16:16:13.588Z,1.55
2018-07-05T16:18:53.333Z,2.20
2018-07-05T16:21:33.112Z,1.70
2018-07-05T16:24:12.721Z,1.50
2018-07-05T16:26:52.672Z,1.57
2018-07-05T16:29:32.606Z,1.25
2018-07-05T16:32:12.229Z,1.15
2018-07-05T16:34:52.018Z,1.10
2018-07-05T16:37:31.876Z,1.20
2018-07-05T16:40:11.772Z,1.47
2018-07-05T16:42:51.643Z,2.02
2018-07-05T16:45:31.372Z,0.90
2018-07-05T16:48:11.252Z,1.10
2018-07-05T16:50:51.086Z,0.95
2018-07-05T16:53:30.920Z,1.00
2018-07-05T16:56:10.907Z,1.25
2018-07-05T16:58:50.791Z,1.00
2018-07-05T17:01:30.584Z,1.45
2018-07-05T17:04:10.375Z,2.80
2018-07-05T17:06:50.141Z,0.98
2018-07-05T17:09:29.941Z,0.90
2018-07-05T17:12:09.641Z,1.00
2018-07-05T17:14:49.448Z,0.70
2018-07-05T17:17:29.176Z,3.02
2018-07-05T17:20:09.067Z,2.75
2018-07-05T17:22:48.931Z,1.17
2018-07-05T17:25:28.662Z,1.12
2018-07-05T17:28:08.408Z,0.90
2018-07-05T17:30:48.140Z,1.00
2018-07-05T17:33:27.859Z,1.67
2018-07-05T17:36:07.571Z,1.55
2018-07-05T17:38:47.327Z,1.90
2018-07-05T17:41:26.929Z,0.95
2018-07-05T17:44:06.678Z,0.90
2018-07-05T17:46:46.528Z,0.88
2018-07-05T17:49:26.309Z,0.90
2018-07-05T17:52:05.931Z,1.47
2018-07-05T17:54:45.687Z,1.22
2018-07-05T17:57:25.295Z,0.93
2018-07-05T18:00:04.958Z,0.80
2018-07-05T18:02:44.631Z,1.07
2018-07-05T18:05:24.346Z,0.93
2018-07-05T18:08:04.125Z,0.95
2018-07-05T18:10:43.735Z,0.90
2018-07-05T18:13:23.576Z,0.90
2018-07-05T18:16:03.281Z,0.60
2018-07-05T18:18:43.025Z,1.60
2018-07-05T18:21:22.666Z,0.88
2018-07-05T18:24:03.150Z,0.60
2018-07-05T18:26:42.907Z,0.80
2018-07-05T18:29:22.514Z,0.70
2018-07-05T18:32:02.132Z,0.75
2018-07-05T18:34:42.116Z,0.65
2018-07-05T18:37:21.905Z,0.95
2018-07-05T18:40:01.589Z,0.78
2018-07-05T18:42:41.303Z,0.90
2018-07-05T18:45:20.988Z,0.78
2018-07-05T18:48:00.520Z,1.10
2018-07-05T18:50:40.247Z,1.27
2018-07-05T18:53:20.019Z,0.70
2018-07-05T18:55:59.756Z,1.70
2018-07-05T18:58:39.513Z,1.22
2018-07-05T19:01:19.219Z,1.30
2018-07-05T19:03:58.880Z,1.80
2018-07-05T19:06:38.583Z,0.72
2018-07-05T19:09:18.282Z,1.05
2018-07-05T19:11:57.908Z,1.10
2018-07-05T19:14:31.534Z,1.10
2018-07-05T19:17:11.372Z,1.45
2018-07-05T19:19:51.273Z,1.55
2018-07-05T19:22:30.991Z,1.27
2018-07-05T19:25:10.719Z,1.27
2018-07-05T19:27:50.458Z,0.98
2018-07-05T19:30:30.155Z,1.12
2018-07-05T19:33:09.888Z,1.50
2018-07-05T19:35:49.606Z,1.62
2018-07-05T19:38:29.343Z,1.22
2018-07-05T19:41:09.045Z,1.72
2018-07-05T19:43:48.742Z,1.00
2018-07-05T19:46:28.294Z,1.30
2018-07-05T19:49:07.944Z,1.37
2018-07-05T19:51:47.625Z,1.07
2018-07-05T19:54:27.506Z,1.27
2018-07-05T19:57:07.253Z,0.93
2018-07-05T19:59:47.036Z,1.37
2018-07-05T20:02:26.693Z,1.50
2018-07-05T20:05:06.498Z,1.20
2018-07-05T20:07:46.200Z,1.22
2018-07-05T20:10:26.092Z,1.40
2018-07-05T20:13:05.820Z,1.40
2018-07-05T20:15:45.619Z,1.30
2018-07-05T20:18:25.184Z,1.50
2018-07-05T20:21:04.946Z,1.32
2018-07-05T20:23:44.611Z,1.60
2018-07-05T20:26:24.249Z,1.72
2018-07-05T20:29:03.880Z,2.40
2018-07-05T20:31:43.605Z,1.25
2018-07-05T20:34:23.301Z,3.05
2018-07-05T20:37:03.336Z,1.40
2018-07-05T20:39:43.075Z,2.22
2018-07-05T20:42:22.801Z,1.80
2018-07-05T20:45:02.513Z,1.50
2018-07-05T20:47:42.283Z,2.00
2018-07-05T20:50:21.862Z,1.77
2018-07-05T20:53:01.531Z,1.80
2018-07-05T20:55:41.205Z,1.70
2018-07-05T20:58:20.995Z,1.37
2018-07-05T21:01:00.753Z,1.32
2018-07-05T21:03:40.329Z,1.65
2018-07-05T21:06:20.001Z,2.05
2018-07-05T21:08:59.667Z,2.55
2018-07-05T21:11:39.303Z,1.50
2018-07-05T21:14:18.965Z,1.55
2018-07-05T21:16:58.591Z,1.57
2018-07-05T21:19:38.377Z,1.40
2018-07-05T21:22:17.925Z,1.60
2018-07-05T21:24:57.666Z,1.30
2018-07-05T21:27:37.403Z,1.05
2018-07-05T21:30:17.091Z,1.22
2018-07-05T21:32:56.827Z,1.70
2018-07-05T21:35:36.557Z,1.40
2018-07-05T21:38:16.338Z,1.22
2018-07-05T21:40:56.101Z,1.25
2018-07-05T21:43:35.766Z,1.42
2018-07-05T21:46:16.031Z,1.27
2018-07-05T21:48:55.856Z,1.52
2018-07-05T21:51:35.545Z,1.05
2018-07-05T21:54:15.201Z,1.32
2018-07-05T21:56:54.759Z,2.40
2018-07-05T21:59:34.501Z,1.42
2018-07-05T22:02:14.206Z,1.40
2018-07-05T22:04:53.802Z,1.00
2018-07-05T22:07:33.474Z,1.30
2018-07-05T22:10:13.273Z,0.90
2018-07-05T22:12:53.005Z,0.90
2018-07-05T22:15:32.677Z,1.07
2018-07-05T22:18:17.772Z,1.42
2018-07-05T22:21:02.976Z,1.22
2018-07-05T22:23:48.145Z,1.30
2018-07-05T22:26:32.561Z,1.20
2018-07-05T22:29:17.641Z,1.37
2018-07-05T22:31:58.536Z,1.45
2018-07-05T22:34:38.224Z,1.17
2018-07-05T22:37:17.922Z,1.00
2018-07-05T22:39:57.784Z,1.42
2018-07-05T22:42:37.867Z,1.05
2018-07-05T22:45:17.550Z,1.42
2018-07-05T22:47:57.240Z,1.17
2018-07-05T22:50:37.031Z,1.20
2018-07-05T22:53:16.717Z,1.10
2018-07-05T22:55:56.368Z,1.00
2018-07-05T22:58:36.311Z,1.00
2018-07-05T23:01:16.299Z,1.50
2018-07-05T23:03:56.761Z,1.12
2018-07-05T23:06:36.493Z,2.95
2018-07-05T23:09:16.243Z,1.57
2018-07-05T23:11:56.100Z,1.05
2018-07-05T23:14:35.831Z,1.30
2018-07-05T23:17:15.475Z,1.55
2018-07-05T23:19:55.266Z,1.10
2018-07-05T23:22:35.018Z,1.22
2018-07-05T23:25:14.638Z,1.40
2018-07-05T23:27:55.451Z,1.20
2018-07-05T23:30:29.351Z,1.30
2018-07-05T23:33:09.068Z,1.32
2018-07-05T23:35:48.620Z,1.52
2018-07-05T23:38:28.291Z,1.40
2018-07-05T23:41:07.935Z,1.05
2018-07-05T23:43:47.616Z,1.22
2018-07-05T23:46:27.237Z,1.15
2018-07-05T23:49:06.833Z,1.00
2018-07-05T23:51:46.480Z,0.85
2018-07-05T23:54:26.039Z,1.12
2018-07-05T23:57:05.801Z,1.30
2018-07-05T23:59:45.549Z,1.20
